sensor_id;sensor_type;location;lat;lon;timestamp;P1;durP1;ratioP1;P2;durP2;ratioP2
41966;SDS011;27656;53.068;8.818;2022-07-23T00:01:26;5.57;;;1.80;;
41966;SDS011;27656;53.068;8.818;2022-07-23T00:03:55;7.17;;;2.10;;
41966;SDS011;27656;53.068;8.818;2022-07-23T00:06:22;6.00;;;1.90;;
41966;SDS011;27656;53.068;8.818;2022-07-23T00:08:49;6.47;;;2.07;;
41966;SDS011;27656;53.068;8.818;2022-07-23T00:11:16;6.80;;;1.93;;
41966;SDS011;27656;53.068;8.818;2022-07-23T00:13:43;5.90;;;1.90;;
41966;SDS011;27656;53.068;8.818;2022-07-23T00:16:09;4.17;;;1.73;;
41966;SDS011;27656;53.068;8.818;2022-07-23T00:18:37;5.27;;;1.80;;
41966;SDS011;27656;53.068;8.818;2022-07-23T00:21:03;6.87;;;1.90;;
41966;SDS011;27656;53.068;8.818;2022-07-23T00:23:30;4.40;;;1.93;;
41966;SDS011;27656;53.068;8.818;2022-07-23T00:25:57;3.57;;;1.60;;
41966;SDS011;27656;53.068;8.818;2022-07-23T00:28:24;6.10;;;1.93;;
41966;SDS011;27656;53.068;8.818;2022-07-23T00:30:51;5.43;;;2.07;;
41966;SDS011;27656;53.068;8.818;2022-07-23T00:33:17;6.83;;;1.70;;
41966;SDS011;27656;53.068;8.818;2022-07-23T00:35:44;5.03;;;1.60;;
41966;SDS011;27656;53.068;8.818;2022-07-23T00:38:10;3.60;;;1.90;;
41966;SDS011;27656;53.068;8.818;2022-07-23T00:40:37;3.33;;;1.63;;
41966;SDS011;27656;53.068;8.818;2022-07-23T00:43:05;3.70;;;1.83;;
41966;SDS011;27656;53.068;8.818;2022-07-23T00:45:31;4.63;;;1.93;;
41966;SDS011;27656;53.068;8.818;2022-07-23T00:47:58;6.00;;;1.90;;
41966;SDS011;27656;53.068;8.818;2022-07-23T00:50:25;3.83;;;2.03;;
41966;SDS011;27656;53.068;8.818;2022-07-23T00:52:52;3.57;;;1.70;;
41966;SDS011;27656;53.068;8.818;2022-07-23T00:55:18;4.43;;;2.13;;
41966;SDS011;27656;53.068;8.818;2022-07-23T00:57:45;6.20;;;2.00;;
41966;SDS011;27656;53.068;8.818;2022-07-23T01:00:12;4.53;;;3.00;;
41966;SDS011;27656;53.068;8.818;2022-07-23T01:02:40;8.20;;;2.73;;
41966;SDS011;27656;53.068;8.818;2022-07-23T01:05:07;7.23;;;2.63;;
41966;SDS011;27656;53.068;8.818;2022-07-23T01:07:34;5.83;;;2.43;;
41966;SDS011;27656;53.068;8.818;2022-07-23T01:10:02;8.83;;;2.67;;
41966;SDS011;27656;53.068;8.818;2022-07-23T01:12:29;5.07;;;2.63;;
41966;SDS011;27656;53.068;8.818;2022-07-23T01:14:56;7.60;;;3.23;;
41966;SDS011;27656;53.068;8.818;2022-07-23T01:17:25;9.17;;;3.20;;
41966;SDS011;27656;53.068;8.818;2022-07-23T01:19:52;8.10;;;2.70;;
41966;SDS011;27656;53.068;8.818;2022-07-23T01:22:19;6.20;;;2.80;;
41966;SDS011;27656;53.068;8.818;2022-07-23T01:24:46;7.70;;;3.33;;
41966;SDS011;27656;53.068;8.818;2022-07-23T01:27:13;7.70;;;2.97;;
41966;SDS011;27656;53.068;8.818;2022-07-23T01:29:39;7.47;;;2.80;;
41966;SDS011;27656;53.068;8.818;2022-07-23T01:32:06;6.33;;;2.60;;
41966;SDS011;27656;53.068;8.818;2022-07-23T01:34:32;6.83;;;2.40;;
41966;SDS011;27656;53.068;8.818;2022-07-23T01:36:59;7.50;;;2.33;;
41966;SDS011;27656;53.068;8.818;2022-07-23T01:39:25;5.90;;;2.63;;
41966;SDS011;27656;53.068;8.818;2022-07-23T01:41:52;5.63;;;3.00;;
41966;SDS011;27656;53.068;8.818;2022-07-23T01:44:18;7.87;;;3.33;;
41966;SDS011;27656;53.068;8.818;2022-07-23T01:46:45;7.13;;;3.40;;
41966;SDS011;27656;53.068;8.818;2022-07-23T01:49:11;8.03;;;3.40;;
41966;SDS011;27656;53.068;8.818;2022-07-23T01:51:38;7.07;;;3.30;;
41966;SDS011;27656;53.068;8.818;2022-07-23T01:54:33;15.43;;;3.60;;
41966;SDS011;27656;53.068;8.818;2022-07-23T01:57:00;4.70;;;3.07;;
41966;SDS011;27656;53.068;8.818;2022-07-23T01:59:27;9.73;;;3.23;;
41966;SDS011;27656;53.068;8.818;2022-07-23T02:01:54;7.97;;;3.00;;
41966;SDS011;27656;53.068;8.818;2022-07-23T02:04:21;6.67;;;3.33;;
41966;SDS011;27656;53.068;8.818;2022-07-23T02:06:48;9.13;;;3.60;;
41966;SDS011;27656;53.068;8.818;2022-07-23T02:09:15;9.10;;;3.17;;
41966;SDS011;27656;53.068;8.818;2022-07-23T02:11:41;6.70;;;3.50;;
41966;SDS011;27656;53.068;8.818;2022-07-23T02:14:08;10.97;;;3.63;;
41966;SDS011;27656;53.068;8.818;2022-07-23T02:16:34;4.93;;;3.10;;
41966;SDS011;27656;53.068;8.818;2022-07-23T02:19:02;9.23;;;2.90;;
41966;SDS011;27656;53.068;8.818;2022-07-23T02:21:29;4.17;;;2.80;;
41966;SDS011;27656;53.068;8.818;2022-07-23T02:23:56;9.80;;;3.10;;
41966;SDS011;27656;53.068;8.818;2022-07-23T02:26:22;7.17;;;3.20;;
41966;SDS011;27656;53.068;8.818;2022-07-23T02:28:49;5.23;;;2.87;;
41966;SDS011;27656;53.068;8.818;2022-07-23T02:31:15;7.60;;;3.50;;
41966;SDS011;27656;53.068;8.818;2022-07-23T02:33:42;7.70;;;3.40;;
41966;SDS011;27656;53.068;8.818;2022-07-23T02:36:08;7.70;;;3.40;;
41966;SDS011;27656;53.068;8.818;2022-07-23T02:38:35;9.33;;;3.30;;
41966;SDS011;27656;53.068;8.818;2022-07-23T02:41:01;6.73;;;3.37;;
41966;SDS011;27656;53.068;8.818;2022-07-23T02:43:28;5.37;;;2.87;;
41966;SDS011;27656;53.068;8.818;2022-07-23T02:45:54;8.70;;;3.40;;
41966;SDS011;27656;53.068;8.818;2022-07-23T02:48:20;5.23;;;3.00;;
41966;SDS011;27656;53.068;8.818;2022-07-23T02:50:47;10.43;;;3.40;;
41966;SDS011;27656;53.068;8.818;2022-07-23T02:53:14;6.43;;;3.10;;
41966;SDS011;27656;53.068;8.818;2022-07-23T02:55:40;12.07;;;3.63;;
41966;SDS011;27656;53.068;8.818;2022-07-23T02:58:06;6.27;;;3.27;;
41966;SDS011;27656;53.068;8.818;2022-07-23T03:00:33;5.40;;;3.50;;
41966;SDS011;27656;53.068;8.818;2022-07-23T03:02:59;7.63;;;3.90;;
41966;SDS011;27656;53.068;8.818;2022-07-23T03:05:26;9.63;;;3.90;;
41966;SDS011;27656;53.068;8.818;2022-07-23T03:07:52;7.10;;;3.60;;
41966;SDS011;27656;53.068;8.818;2022-07-23T03:10:19;7.80;;;3.23;;
41966;SDS011;27656;53.068;8.818;2022-07-23T03:12:45;5.73;;;3.07;;
41966;SDS011;27656;53.068;8.818;2022-07-23T03:15:12;6.87;;;3.43;;
41966;SDS011;27656;53.068;8.818;2022-07-23T03:17:38;7.47;;;3.60;;
41966;SDS011;27656;53.068;8.818;2022-07-23T03:20:05;7.67;;;3.43;;
41966;SDS011;27656;53.068;8.818;2022-07-23T03:22:32;7.93;;;3.50;;
41966;SDS011;27656;53.068;8.818;2022-07-23T03:24:58;12.53;;;3.30;;
41966;SDS011;27656;53.068;8.818;2022-07-23T03:27:26;5.70;;;3.30;;
41966;SDS011;27656;53.068;8.818;2022-07-23T03:29:54;8.53;;;3.00;;
41966;SDS011;27656;53.068;8.818;2022-07-23T03:32:21;6.77;;;3.20;;
41966;SDS011;27656;53.068;8.818;2022-07-23T03:34:48;6.90;;;3.47;;
41966;SDS011;27656;53.068;8.818;2022-07-23T03:37:15;13.70;;;4.20;;
41966;SDS011;27656;53.068;8.818;2022-07-23T03:39:42;5.90;;;2.93;;
41966;SDS011;27656;53.068;8.818;2022-07-23T03:42:08;5.73;;;3.33;;
41966;SDS011;27656;53.068;8.818;2022-07-23T03:44:35;7.20;;;3.00;;
41966;SDS011;27656;53.068;8.818;2022-07-23T03:47:03;9.23;;;3.23;;
41966;SDS011;27656;53.068;8.818;2022-07-23T03:49:30;7.60;;;2.90;;
41966;SDS011;27656;53.068;8.818;2022-07-23T03:51:57;6.67;;;3.00;;
41966;SDS011;27656;53.068;8.818;2022-07-23T03:54:24;4.37;;;2.73;;
41966;SDS011;27656;53.068;8.818;2022-07-23T03:56:50;7.30;;;3.00;;
41966;SDS011;27656;53.068;8.818;2022-07-23T03:59:17;5.57;;;2.60;;
41966;SDS011;27656;53.068;8.818;2022-07-23T04:01:49;9.17;;;2.80;;
41966;SDS011;27656;53.068;8.818;2022-07-23T04:04:15;7.57;;;2.97;;
41966;SDS011;27656;53.068;8.818;2022-07-23T04:06:42;6.90;;;2.87;;
41966;SDS011;27656;53.068;8.818;2022-07-23T04:09:08;7.77;;;3.50;;
41966;SDS011;27656;53.068;8.818;2022-07-23T04:11:35;7.30;;;3.47;;
41966;SDS011;27656;53.068;8.818;2022-07-23T04:14:01;4.20;;;2.80;;
41966;SDS011;27656;53.068;8.818;2022-07-23T04:16:28;8.60;;;3.10;;
41966;SDS011;27656;53.068;8.818;2022-07-23T04:18:54;10.07;;;3.50;;
41966;SDS011;27656;53.068;8.818;2022-07-23T04:21:21;9.70;;;3.77;;
41966;SDS011;27656;53.068;8.818;2022-07-23T04:23:48;9.70;;;3.87;;
41966;SDS011;27656;53.068;8.818;2022-07-23T04:26:14;6.23;;;2.97;;
41966;SDS011;27656;53.068;8.818;2022-07-23T04:28:43;5.77;;;3.60;;
41966;SDS011;27656;53.068;8.818;2022-07-23T04:31:09;9.13;;;3.20;;
41966;SDS011;27656;53.068;8.818;2022-07-23T04:33:36;8.17;;;3.60;;
41966;SDS011;27656;53.068;8.818;2022-07-23T04:36:03;12.50;;;3.23;;
41966;SDS011;27656;53.068;8.818;2022-07-23T04:38:30;10.73;;;3.73;;
41966;SDS011;27656;53.068;8.818;2022-07-23T04:40:56;8.30;;;3.87;;
41966;SDS011;27656;53.068;8.818;2022-07-23T04:43:22;8.33;;;3.90;;
41966;SDS011;27656;53.068;8.818;2022-07-23T04:45:49;7.57;;;4.17;;
41966;SDS011;27656;53.068;8.818;2022-07-23T04:48:16;13.50;;;4.40;;
41966;SDS011;27656;53.068;8.818;2022-07-23T04:50:43;10.67;;;3.90;;
41966;SDS011;27656;53.068;8.818;2022-07-23T04:53:10;9.90;;;4.23;;
41966;SDS011;27656;53.068;8.818;2022-07-23T04:55:36;5.67;;;3.90;;
41966;SDS011;27656;53.068;8.818;2022-07-23T04:58:03;9.80;;;3.73;;
41966;SDS011;27656;53.068;8.818;2022-07-23T05:00:29;10.57;;;4.33;;
41966;SDS011;27656;53.068;8.818;2022-07-23T05:02:56;6.40;;;3.87;;
41966;SDS011;27656;53.068;8.818;2022-07-23T05:05:22;9.60;;;4.00;;
41966;SDS011;27656;53.068;8.818;2022-07-23T05:07:49;6.80;;;3.77;;
41966;SDS011;27656;53.068;8.818;2022-07-23T05:10:15;7.40;;;3.70;;
41966;SDS011;27656;53.068;8.818;2022-07-23T05:12:42;7.73;;;3.20;;
41966;SDS011;27656;53.068;8.818;2022-07-23T05:15:08;8.90;;;3.97;;
41966;SDS011;27656;53.068;8.818;2022-07-23T05:17:35;8.00;;;3.43;;
41966;SDS011;27656;53.068;8.818;2022-07-23T05:20:01;8.37;;;3.50;;
41966;SDS011;27656;53.068;8.818;2022-07-23T05:22:28;4.83;;;2.97;;
41966;SDS011;27656;53.068;8.818;2022-07-23T05:24:55;7.20;;;3.30;;
41966;SDS011;27656;53.068;8.818;2022-07-23T05:27:21;6.00;;;2.80;;
41966;SDS011;27656;53.068;8.818;2022-07-23T05:29:47;5.00;;;3.10;;
41966;SDS011;27656;53.068;8.818;2022-07-23T05:32:14;5.57;;;2.57;;
41966;SDS011;27656;53.068;8.818;2022-07-23T05:34:40;8.00;;;2.23;;
41966;SDS011;27656;53.068;8.818;2022-07-23T05:37:07;5.47;;;2.37;;
41966;SDS011;27656;53.068;8.818;2022-07-23T05:39:33;8.23;;;2.67;;
41966;SDS011;27656;53.068;8.818;2022-07-23T05:42:00;2.93;;;1.70;;
41966;SDS011;27656;53.068;8.818;2022-07-23T05:44:26;4.83;;;1.87;;
41966;SDS011;27656;53.068;8.818;2022-07-23T05:46:59;6.70;;;2.10;;
41966;SDS011;27656;53.068;8.818;2022-07-23T05:49:26;8.63;;;2.80;;
41966;SDS011;27656;53.068;8.818;2022-07-23T05:51:53;6.70;;;2.70;;
41966;SDS011;27656;53.068;8.818;2022-07-23T05:54:19;5.47;;;2.70;;
41966;SDS011;27656;53.068;8.818;2022-07-23T05:56:46;4.97;;;2.87;;
41966;SDS011;27656;53.068;8.818;2022-07-23T05:59:12;10.50;;;3.00;;
41966;SDS011;27656;53.068;8.818;2022-07-23T06:01:40;9.40;;;2.60;;
41966;SDS011;27656;53.068;8.818;2022-07-23T06:04:07;7.83;;;2.67;;
41966;SDS011;27656;53.068;8.818;2022-07-23T06:06:33;11.07;;;2.43;;
41966;SDS011;27656;53.068;8.818;2022-07-23T06:09:00;5.27;;;2.40;;
41966;SDS011;27656;53.068;8.818;2022-07-23T06:11:27;5.63;;;2.23;;
41966;SDS011;27656;53.068;8.818;2022-07-23T06:13:53;7.00;;;1.90;;
41966;SDS011;27656;53.068;8.818;2022-07-23T06:16:20;5.33;;;2.33;;
41966;SDS011;27656;53.068;8.818;2022-07-23T06:18:46;5.47;;;2.17;;
41966;SDS011;27656;53.068;8.818;2022-07-23T06:21:13;4.90;;;2.10;;
41966;SDS011;27656;53.068;8.818;2022-07-23T06:23:59;6.27;;;2.50;;
41966;SDS011;27656;53.068;8.818;2022-07-23T06:26:26;4.90;;;1.93;;
41966;SDS011;27656;53.068;8.818;2022-07-23T06:28:52;6.07;;;2.07;;
41966;SDS011;27656;53.068;8.818;2022-07-23T06:31:19;7.07;;;2.47;;
41966;SDS011;27656;53.068;8.818;2022-07-23T06:33:45;4.27;;;2.10;;
41966;SDS011;27656;53.068;8.818;2022-07-23T06:36:12;5.33;;;1.90;;
41966;SDS011;27656;53.068;8.818;2022-07-23T06:38:38;5.67;;;2.00;;
41966;SDS011;27656;53.068;8.818;2022-07-23T06:41:05;5.30;;;2.60;;
41966;SDS011;27656;53.068;8.818;2022-07-23T06:43:32;7.43;;;3.20;;
41966;SDS011;27656;53.068;8.818;2022-07-23T06:45:58;4.77;;;1.93;;
41966;SDS011;27656;53.068;8.818;2022-07-23T06:48:25;6.90;;;1.87;;
41966;SDS011;27656;53.068;8.818;2022-07-23T06:50:52;4.50;;;1.90;;
41966;SDS011;27656;53.068;8.818;2022-07-23T06:53:18;7.57;;;2.07;;
41966;SDS011;27656;53.068;8.818;2022-07-23T06:55:45;2.53;;;1.50;;
41966;SDS011;27656;53.068;8.818;2022-07-23T06:58:11;3.53;;;2.33;;
41966;SDS011;27656;53.068;8.818;2022-07-23T07:00:40;5.07;;;1.73;;
41966;SDS011;27656;53.068;8.818;2022-07-23T07:03:06;3.53;;;1.17;;
41966;SDS011;27656;53.068;8.818;2022-07-23T07:05:33;4.43;;;1.17;;
41966;SDS011;27656;53.068;8.818;2022-07-23T07:07:59;4.53;;;1.20;;
41966;SDS011;27656;53.068;8.818;2022-07-23T07:10:26;2.07;;;1.07;;
41966;SDS011;27656;53.068;8.818;2022-07-23T07:12:53;6.03;;;1.20;;
41966;SDS011;27656;53.068;8.818;2022-07-23T07:15:19;4.83;;;1.40;;
41966;SDS011;27656;53.068;8.818;2022-07-23T07:17:46;4.93;;;1.40;;
41966;SDS011;27656;53.068;8.818;2022-07-23T07:20:13;5.67;;;1.00;;
41966;SDS011;27656;53.068;8.818;2022-07-23T07:22:40;6.67;;;1.17;;
41966;SDS011;27656;53.068;8.818;2022-07-23T07:25:06;8.77;;;1.17;;
41966;SDS011;27656;53.068;8.818;2022-07-23T07:27:33;6.10;;;1.60;;
41966;SDS011;27656;53.068;8.818;2022-07-23T07:30:00;7.63;;;1.20;;
41966;SDS011;27656;53.068;8.818;2022-07-23T07:32:26;4.50;;;1.27;;
41966;SDS011;27656;53.068;8.818;2022-07-23T07:35:13;4.70;;;1.30;;
41966;SDS011;27656;53.068;8.818;2022-07-23T07:37:39;4.03;;;1.00;;
41966;SDS011;27656;53.068;8.818;2022-07-23T07:40:06;4.13;;;1.30;;
41966;SDS011;27656;53.068;8.818;2022-07-23T07:42:33;7.97;;;1.13;;
41966;SDS011;27656;53.068;8.818;2022-07-23T07:45:00;2.30;;;1.00;;
41966;SDS011;27656;53.068;8.818;2022-07-23T07:47:27;2.10;;;1.03;;
41966;SDS011;27656;53.068;8.818;2022-07-23T07:49:53;4.67;;;1.13;;
41966;SDS011;27656;53.068;8.818;2022-07-23T07:52:20;4.87;;;1.20;;
41966;SDS011;27656;53.068;8.818;2022-07-23T07:54:47;3.80;;;1.30;;
41966;SDS011;27656;53.068;8.818;2022-07-23T07:57:14;7.10;;;1.40;;
41966;SDS011;27656;53.068;8.818;2022-07-23T07:59:42;1.77;;;1.10;;
41966;SDS011;27656;53.068;8.818;2022-07-23T08:02:11;3.70;;;1.40;;
41966;SDS011;27656;53.068;8.818;2022-07-23T08:04:37;5.23;;;1.57;;
41966;SDS011;27656;53.068;8.818;2022-07-23T08:07:04;4.77;;;1.60;;
41966;SDS011;27656;53.068;8.818;2022-07-23T08:09:30;6.03;;;1.80;;
41966;SDS011;27656;53.068;8.818;2022-07-23T08:11:57;2.20;;;1.80;;
41966;SDS011;27656;53.068;8.818;2022-07-23T08:14:23;3.40;;;2.10;;
41966;SDS011;27656;53.068;8.818;2022-07-23T08:16:49;3.43;;;1.60;;
41966;SDS011;27656;53.068;8.818;2022-07-23T08:19:36;4.90;;;1.97;;
41966;SDS011;27656;53.068;8.818;2022-07-23T08:22:02;3.33;;;1.50;;
41966;SDS011;27656;53.068;8.818;2022-07-23T08:24:29;4.87;;;1.73;;
41966;SDS011;27656;53.068;8.818;2022-07-23T08:26:55;2.87;;;1.93;;
41966;SDS011;27656;53.068;8.818;2022-07-23T08:29:22;5.10;;;1.87;;
41966;SDS011;27656;53.068;8.818;2022-07-23T08:31:52;5.27;;;2.60;;
41966;SDS011;27656;53.068;8.818;2022-07-23T08:34:19;5.67;;;1.77;;
41966;SDS011;27656;53.068;8.818;2022-07-23T08:36:45;4.10;;;1.27;;
41966;SDS011;27656;53.068;8.818;2022-07-23T08:39:12;2.53;;;1.17;;
41966;SDS011;27656;53.068;8.818;2022-07-23T08:41:39;1.93;;;1.13;;
41966;SDS011;27656;53.068;8.818;2022-07-23T08:44:08;5.47;;;1.20;;
41966;SDS011;27656;53.068;8.818;2022-07-23T08:46:35;2.83;;;0.97;;
41966;SDS011;27656;53.068;8.818;2022-07-23T08:49:08;6.80;;;1.47;;
41966;SDS011;27656;53.068;8.818;2022-07-23T08:51:35;5.57;;;1.10;;
41966;SDS011;27656;53.068;8.818;2022-07-23T08:54:03;2.70;;;1.10;;
41966;SDS011;27656;53.068;8.818;2022-07-23T08:56:31;3.10;;;1.17;;
41966;SDS011;27656;53.068;8.818;2022-07-23T08:58:57;4.30;;;1.23;;
41966;SDS011;27656;53.068;8.818;2022-07-23T09:01:24;2.97;;;1.23;;
41966;SDS011;27656;53.068;8.818;2022-07-23T09:03:50;4.23;;;1.50;;
41966;SDS011;27656;53.068;8.818;2022-07-23T09:06:17;2.13;;;1.07;;
41966;SDS011;27656;53.068;8.818;2022-07-23T09:08:44;2.50;;;1.33;;
41966;SDS011;27656;53.068;8.818;2022-07-23T09:11:11;6.87;;;1.20;;
41966;SDS011;27656;53.068;8.818;2022-07-23T09:13:40;5.63;;;1.40;;
41966;SDS011;27656;53.068;8.818;2022-07-23T09:16:11;3.40;;;1.17;;
41966;SDS011;27656;53.068;8.818;2022-07-23T09:18:53;1.67;;;1.00;;
41966;SDS011;27656;53.068;8.818;2022-07-23T09:26:22;2.43;;;0.80;;
41966;SDS011;27656;53.068;8.818;2022-07-23T09:31:34;5.23;;;1.10;;
41966;SDS011;27656;53.068;8.818;2022-07-23T09:34:10;1.77;;;1.00;;
41966;SDS011;27656;53.068;8.818;2022-07-23T09:36:38;2.03;;;0.63;;
41966;SDS011;27656;53.068;8.818;2022-07-23T09:39:05;2.37;;;0.90;;
41966;SDS011;27656;53.068;8.818;2022-07-23T09:41:36;2.90;;;0.70;;
41966;SDS011;27656;53.068;8.818;2022-07-23T09:44:07;1.37;;;0.90;;
41966;SDS011;27656;53.068;8.818;2022-07-23T09:46:48;2.03;;;0.73;;
41966;SDS011;27656;53.068;8.818;2022-07-23T09:51:47;1.27;;;0.70;;
41966;SDS011;27656;53.068;8.818;2022-07-23T09:54:28;2.27;;;0.70;;
41966;SDS011;27656;53.068;8.818;2022-07-23T09:57:08;3.33;;;0.80;;
41966;SDS011;27656;53.068;8.818;2022-07-23T09:59:40;1.63;;;0.70;;
41966;SDS011;27656;53.068;8.818;2022-07-23T10:02:09;4.10;;;0.80;;
41966;SDS011;27656;53.068;8.818;2022-07-23T10:04:38;2.17;;;0.47;;
41966;SDS011;27656;53.068;8.818;2022-07-23T10:07:06;1.20;;;0.60;;
41966;SDS011;27656;53.068;8.818;2022-07-23T10:09:36;4.70;;;0.70;;
41966;SDS011;27656;53.068;8.818;2022-07-23T10:12:14;1.50;;;0.50;;
41966;SDS011;27656;53.068;8.818;2022-07-23T10:14:48;0.80;;;0.50;;
41966;SDS011;27656;53.068;8.818;2022-07-23T10:17:15;2.07;;;0.70;;
41966;SDS011;27656;53.068;8.818;2022-07-23T10:19:42;2.77;;;0.50;;
41966;SDS011;27656;53.068;8.818;2022-07-23T10:22:10;1.03;;;0.60;;
41966;SDS011;27656;53.068;8.818;2022-07-23T10:24:58;1.47;;;0.60;;
41966;SDS011;27656;53.068;8.818;2022-07-23T10:27:43;1.20;;;0.50;;
41966;SDS011;27656;53.068;8.818;2022-07-23T10:36:30;2.30;;;0.60;;
41966;SDS011;27656;53.068;8.818;2022-07-23T10:39:08;4.87;;;0.50;;
41966;SDS011;27656;53.068;8.818;2022-07-23T10:41:41;1.83;;;0.40;;
41966;SDS011;27656;53.068;8.818;2022-07-23T10:44:12;2.10;;;1.03;;
41966;SDS011;27656;53.068;8.818;2022-07-23T10:46:56;2.37;;;0.80;;
41966;SDS011;27656;53.068;8.818;2022-07-23T10:49:45;3.27;;;0.67;;
41966;SDS011;27656;53.068;8.818;2022-07-23T10:57:18;2.57;;;0.87;;
41966;SDS011;27656;53.068;8.818;2022-07-23T11:02:38;3.07;;;0.77;;
41966;SDS011;27656;53.068;8.818;2022-07-23T11:05:07;2.20;;;0.80;;
41966;SDS011;27656;53.068;8.818;2022-07-23T11:07:35;2.93;;;0.60;;
41966;SDS011;27656;53.068;8.818;2022-07-23T11:10:03;1.83;;;0.80;;
41966;SDS011;27656;53.068;8.818;2022-07-23T11:17:36;2.77;;;0.83;;
41966;SDS011;27656;53.068;8.818;2022-07-23T11:22:36;1.03;;;0.60;;
41966;SDS011;27656;53.068;8.818;2022-07-23T11:25:03;1.33;;;0.60;;
41966;SDS011;27656;53.068;8.818;2022-07-23T11:27:37;1.47;;;0.80;;
41966;SDS011;27656;53.068;8.818;2022-07-23T11:30:04;3.63;;;1.00;;
41966;SDS011;27656;53.068;8.818;2022-07-23T11:32:32;1.13;;;0.63;;
41966;SDS011;27656;53.068;8.818;2022-07-23T11:35:02;1.73;;;0.70;;
41966;SDS011;27656;53.068;8.818;2022-07-23T11:40:01;1.53;;;0.80;;
41966;SDS011;27656;53.068;8.818;2022-07-23T11:42:31;3.10;;;0.73;;
41966;SDS011;27656;53.068;8.818;2022-07-23T11:44:58;2.20;;;0.83;;
41966;SDS011;27656;53.068;8.818;2022-07-23T11:47:25;1.27;;;0.50;;
41966;SDS011;27656;53.068;8.818;2022-07-23T11:49:56;2.93;;;0.77;;
41966;SDS011;27656;53.068;8.818;2022-07-23T11:52:26;1.33;;;0.70;;
41966;SDS011;27656;53.068;8.818;2022-07-23T11:54:55;1.27;;;0.77;;
41966;SDS011;27656;53.068;8.818;2022-07-23T11:57:30;1.47;;;0.60;;
41966;SDS011;27656;53.068;8.818;2022-07-23T12:00:01;2.33;;;0.90;;
41966;SDS011;27656;53.068;8.818;2022-07-23T12:02:30;2.60;;;0.80;;
41966;SDS011;27656;53.068;8.818;2022-07-23T12:04:57;2.07;;;0.70;;
41966;SDS011;27656;53.068;8.818;2022-07-23T12:10:13;1.40;;;0.63;;
41966;SDS011;27656;53.068;8.818;2022-07-23T12:13:02;3.15;;;0.50;;
41966;SDS011;27656;53.068;8.818;2022-07-23T12:15:31;4.83;;;1.30;;
41966;SDS011;27656;53.068;8.818;2022-07-23T12:18:05;3.33;;;1.23;;
41966;SDS011;27656;53.068;8.818;2022-07-23T12:20:54;3.40;;;1.60;;
41966;SDS011;27656;53.068;8.818;2022-07-23T12:23:20;2.43;;;1.00;;
41966;SDS011;27656;53.068;8.818;2022-07-23T12:25:48;3.47;;;0.70;;
41966;SDS011;27656;53.068;8.818;2022-07-23T12:28:17;1.50;;;0.70;;
41966;SDS011;27656;53.068;8.818;2022-07-23T12:33:24;2.63;;;0.60;;
41966;SDS011;27656;53.068;8.818;2022-07-23T12:35:52;1.70;;;0.70;;
41966;SDS011;27656;53.068;8.818;2022-07-23T12:38:39;7.30;;;0.93;;
41966;SDS011;27656;53.068;8.818;2022-07-23T12:41:08;3.77;;;0.80;;
41966;SDS011;27656;53.068;8.818;2022-07-23T12:43:38;0.90;;;0.63;;
41966;SDS011;27656;53.068;8.818;2022-07-23T12:46:13;4.10;;;0.90;;
41966;SDS011;27656;53.068;8.818;2022-07-23T12:51:17;2.87;;;0.60;;
41966;SDS011;27656;53.068;8.818;2022-07-23T12:53:47;0.70;;;0.47;;
41966;SDS011;27656;53.068;8.818;2022-07-23T12:56:22;1.80;;;0.50;;
41966;SDS011;27656;53.068;8.818;2022-07-23T12:58:54;3.37;;;0.83;;
41966;SDS011;27656;53.068;8.818;2022-07-23T13:01:24;2.23;;;0.60;;
41966;SDS011;27656;53.068;8.818;2022-07-23T13:06:42;1.23;;;0.70;;
41966;SDS011;27656;53.068;8.818;2022-07-23T13:09:13;1.88;;;0.73;;
41966;SDS011;27656;53.068;8.818;2022-07-23T13:11:47;3.55;;;1.20;;
41966;SDS011;27656;53.068;8.818;2022-07-23T13:14:15;4.70;;;1.20;;
41966;SDS011;27656;53.068;8.818;2022-07-23T13:16:46;4.45;;;0.88;;
41966;SDS011;27656;53.068;8.818;2022-07-23T13:19:14;1.75;;;0.70;;
41966;SDS011;27656;53.068;8.818;2022-07-23T13:21:44;0.80;;;0.50;;
41966;SDS011;27656;53.068;8.818;2022-07-23T13:24:12;6.77;;;0.70;;
41966;SDS011;27656;53.068;8.818;2022-07-23T13:26:39;0.97;;;0.67;;
41966;SDS011;27656;53.068;8.818;2022-07-23T13:29:06;3.73;;;0.80;;
41966;SDS011;27656;53.068;8.818;2022-07-23T13:31:36;1.30;;;0.60;;
41966;SDS011;27656;53.068;8.818;2022-07-23T13:34:04;1.97;;;0.53;;
41966;SDS011;27656;53.068;8.818;2022-07-23T13:36:33;1.23;;;0.67;;
41966;SDS011;27656;53.068;8.818;2022-07-23T13:39:00;3.73;;;0.90;;
41966;SDS011;27656;53.068;8.818;2022-07-23T13:41:27;1.10;;;0.60;;
41966;SDS011;27656;53.068;8.818;2022-07-23T13:43:54;2.27;;;0.60;;
41966;SDS011;27656;53.068;8.818;2022-07-23T13:46:23;3.03;;;0.60;;
41966;SDS011;27656;53.068;8.818;2022-07-23T13:48:50;2.90;;;0.70;;
41966;SDS011;27656;53.068;8.818;2022-07-23T13:51:17;1.80;;;0.70;;
41966;SDS011;27656;53.068;8.818;2022-07-23T13:53:45;1.07;;;0.57;;
41966;SDS011;27656;53.068;8.818;2022-07-23T13:56:11;2.23;;;0.60;;
41966;SDS011;27656;53.068;8.818;2022-07-23T13:58:38;3.90;;;0.80;;
41966;SDS011;27656;53.068;8.818;2022-07-23T14:01:06;5.22;;;1.08;;
41966;SDS011;27656;53.068;8.818;2022-07-23T14:03:33;2.37;;;0.70;;
41966;SDS011;27656;53.068;8.818;2022-07-23T14:06:00;2.47;;;0.80;;
41966;SDS011;27656;53.068;8.818;2022-07-23T14:08:26;4.33;;;0.80;;
41966;SDS011;27656;53.068;8.818;2022-07-23T14:10:53;6.10;;;0.80;;
41966;SDS011;27656;53.068;8.818;2022-07-23T14:13:19;1.87;;;0.70;;
41966;SDS011;27656;53.068;8.818;2022-07-23T14:15:47;2.07;;;0.80;;
41966;SDS011;27656;53.068;8.818;2022-07-23T14:18:13;1.43;;;0.70;;
41966;SDS011;27656;53.068;8.818;2022-07-23T14:20:40;5.80;;;0.60;;
41966;SDS011;27656;53.068;8.818;2022-07-23T14:23:06;3.83;;;0.90;;
41966;SDS011;27656;53.068;8.818;2022-07-23T14:25:33;5.30;;;1.10;;
41966;SDS011;27656;53.068;8.818;2022-07-23T14:27:59;3.13;;;1.00;;
41966;SDS011;27656;53.068;8.818;2022-07-23T14:30:26;1.93;;;0.97;;
41966;SDS011;27656;53.068;8.818;2022-07-23T14:32:59;2.07;;;0.70;;
41966;SDS011;27656;53.068;8.818;2022-07-23T14:35:26;1.67;;;0.60;;
41966;SDS011;27656;53.068;8.818;2022-07-23T14:37:53;4.70;;;0.70;;
41966;SDS011;27656;53.068;8.818;2022-07-23T14:40:20;1.10;;;0.70;;
41966;SDS011;27656;53.068;8.818;2022-07-23T14:42:48;1.40;;;0.67;;
41966;SDS011;27656;53.068;8.818;2022-07-23T14:45:15;2.63;;;0.73;;
41966;SDS011;27656;53.068;8.818;2022-07-23T14:47:44;3.07;;;0.87;;
41966;SDS011;27656;53.068;8.818;2022-07-23T14:50:12;1.60;;;0.70;;
41966;SDS011;27656;53.068;8.818;2022-07-23T14:52:39;2.90;;;0.77;;
41966;SDS011;27656;53.068;8.818;2022-07-23T14:55:06;3.63;;;0.90;;
41966;SDS011;27656;53.068;8.818;2022-07-23T14:57:33;4.87;;;1.00;;
41966;SDS011;27656;53.068;8.818;2022-07-23T14:59:59;4.43;;;0.90;;
41966;SDS011;27656;53.068;8.818;2022-07-23T15:02:26;2.40;;;0.70;;
41966;SDS011;27656;53.068;8.818;2022-07-23T15:04:52;4.30;;;0.73;;
41966;SDS011;27656;53.068;8.818;2022-07-23T15:07:19;1.10;;;0.67;;
41966;SDS011;27656;53.068;8.818;2022-07-23T15:09:46;3.70;;;0.87;;
41966;SDS011;27656;53.068;8.818;2022-07-23T15:12:13;5.20;;;0.77;;
41966;SDS011;27656;53.068;8.818;2022-07-23T15:14:40;3.13;;;0.97;;
41966;SDS011;27656;53.068;8.818;2022-07-23T15:17:06;3.20;;;0.70;;
41966;SDS011;27656;53.068;8.818;2022-07-23T15:19:33;2.33;;;0.60;;
41966;SDS011;27656;53.068;8.818;2022-07-23T15:21:59;4.23;;;1.00;;
41966;SDS011;27656;53.068;8.818;2022-07-23T15:24:27;3.80;;;1.17;;
41966;SDS011;27656;53.068;8.818;2022-07-23T15:26:54;6.60;;;1.10;;
41966;SDS011;27656;53.068;8.818;2022-07-23T15:29:20;7.23;;;1.00;;
41966;SDS011;27656;53.068;8.818;2022-07-23T15:31:47;3.73;;;0.80;;
41966;SDS011;27656;53.068;8.818;2022-07-23T15:34:20;1.73;;;0.60;;
41966;SDS011;27656;53.068;8.818;2022-07-23T15:36:47;7.13;;;0.90;;
41966;SDS011;27656;53.068;8.818;2022-07-23T15:39:13;1.27;;;0.60;;